createdAt,value
2019-05-30T00:01:06.182Z,97.40
2019-05-30T00:03:36.372Z,97.30
2019-05-30T00:06:06.082Z,97.40
2019-05-30T00:08:36.088Z,97.50
2019-05-30T00:11:05.583Z,97.90
2019-05-30T00:13:35.337Z,97.80
2019-05-30T00:16:05.683Z,98.00
2019-05-30T00:18:35.246Z,97.90
2019-05-30T00:21:05.066Z,97.60
2019-05-30T00:23:34.274Z,97.10
2019-05-30T00:26:03.749Z,96.90
2019-05-30T00:28:33.563Z,96.90
2019-05-30T00:31:03.038Z,97.30
2019-05-30T00:33:34.799Z,97.60
2019-05-30T00:36:04.279Z,97.70
2019-05-30T00:38:33.708Z,97.70
2019-05-30T00:41:04.734Z,97.80
2019-05-30T00:43:34.792Z,97.90
2019-05-30T00:46:04.260Z,98.00
2019-05-30T00:48:34.023Z,98.20
2019-05-30T00:51:03.032Z,98.20
2019-05-30T00:53:32.459Z,98.20
2019-05-30T00:56:03.107Z,98.20
2019-05-30T00:58:32.797Z,98.30
2019-05-30T01:01:03.115Z,98.60
2019-05-30T01:03:32.685Z,98.50
2019-05-30T01:06:02.887Z,98.60
2019-05-30T01:08:33.288Z,98.60
2019-05-30T01:11:03.160Z,98.50
2019-05-30T01:13:32.837Z,98.50
2019-05-30T01:16:05.618Z,98.60
2019-05-30T01:18:34.804Z,98.50
2019-05-30T01:21:05.297Z,98.60
2019-05-30T01:23:36.546Z,98.70
2019-05-30T01:26:05.974Z,98.80
2019-05-30T01:28:34.949Z,98.80
2019-05-30T01:31:08.266Z,98.80
2019-05-30T01:33:35.361Z,99.10
2019-05-30T01:36:05.738Z,99.10
2019-05-30T01:38:34.867Z,99.00
2019-05-30T01:41:04.189Z,98.90
2019-05-30T01:43:33.318Z,98.80
2019-05-30T01:46:04.123Z,98.80
2019-05-30T01:48:34.089Z,98.90
2019-05-30T01:51:04.595Z,99.00
2019-05-30T01:53:34.104Z,99.00
2019-05-30T01:56:03.221Z,99.20
2019-05-30T01:58:32.712Z,99.10
2019-05-30T02:01:17.135Z,99.00
2019-05-30T02:03:33.131Z,99.10
2019-05-30T02:06:03.256Z,99.00
2019-05-30T02:08:32.445Z,98.70
2019-05-30T02:11:01.809Z,98.90
2019-05-30T02:13:30.908Z,99.10
2019-05-30T02:16:01.482Z,99.30
2019-05-30T02:18:30.896Z,99.30
2019-05-30T02:21:02.045Z,99.40
2019-05-30T02:23:31.646Z,99.20
2019-05-30T02:26:02.182Z,99.30
2019-05-30T02:28:31.547Z,99.40
2019-05-30T02:31:02.980Z,99.20
2019-05-30T02:33:31.904Z,99.30
2019-05-30T02:36:03.440Z,99.60
2019-05-30T02:38:31.977Z,99.70
2019-05-30T02:41:01.816Z,99.70
2019-05-30T02:43:32.192Z,99.70
2019-05-30T02:46:03.430Z,99.70
2019-05-30T02:48:32.808Z,99.70
2019-05-30T02:51:03.222Z,99.50
2019-05-30T02:53:32.946Z,99.70
2019-05-30T02:56:03.668Z,99.70
2019-05-30T02:58:33.947Z,99.90
2019-05-30T03:01:04.030Z,99.90
2019-05-30T03:03:33.868Z,99.90
2019-05-30T03:06:03.849Z,99.90
2019-05-30T03:08:34.250Z,99.90
2019-05-30T03:11:05.054Z,99.90
2019-05-30T03:13:34.451Z,99.90
2019-05-30T03:16:05.015Z,99.60
2019-05-30T03:18:35.225Z,99.50
2019-05-30T03:21:05.901Z,99.30
2019-05-30T03:23:36.044Z,98.90
2019-05-30T03:26:07.100Z,98.90
2019-05-30T03:28:37.174Z,98.90
2019-05-30T03:31:13.793Z,98.80
2019-05-30T03:33:42.561Z,99.00
2019-05-30T03:36:24.144Z,98.90
2019-05-30T03:38:44.334Z,99.10
2019-05-30T03:41:14.157Z,99.30
2019-05-30T03:43:43.618Z,99.20
2019-05-30T03:46:17.553Z,99.10
2019-05-30T03:48:50.110Z,99.00
2019-05-30T03:51:20.947Z,99.00
2019-05-30T03:53:50.739Z,99.00
2019-05-30T03:56:23.933Z,98.80
2019-05-30T03:59:10.363Z,98.70
2019-05-30T04:02:06.418Z,98.60
2019-05-30T04:04:41.823Z,98.30
2019-05-30T04:07:15.938Z,98.60
2019-05-30T04:09:47.178Z,98.70
2019-05-30T04:12:44.633Z,98.80
2019-05-30T04:15:22.949Z,99.00
2019-05-30T04:17:52.475Z,99.00
2019-05-30T04:20:23.105Z,98.80
2019-05-30T04:22:52.394Z,98.80
2019-05-30T04:25:21.864Z,98.60
2019-05-30T04:27:51.813Z,98.50
2019-05-30T04:30:21.472Z,98.40
2019-05-30T04:32:51.100Z,98.20
2019-05-30T04:35:20.434Z,98.40
2019-05-30T04:37:50.051Z,98.40
2019-05-30T04:40:19.787Z,98.20
2019-05-30T04:42:49.154Z,98.30
2019-05-30T04:45:20.219Z,98.20
2019-05-30T04:47:49.703Z,98.30
2019-05-30T04:50:20.755Z,98.30
2019-05-30T04:52:51.068Z,98.40
2019-05-30T04:55:22.707Z,98.20
2019-05-30T04:57:51.521Z,98.40
2019-05-30T05:00:21.671Z,98.40
2019-05-30T05:02:51.354Z,98.20
2019-05-30T05:05:26.353Z,98.10
2019-05-30T05:07:53.055Z,97.90
2019-05-30T05:10:22.558Z,97.80
2019-05-30T05:12:52.110Z,97.40
2019-05-30T05:15:22.654Z,97.30
2019-05-30T05:17:51.716Z,96.90
2019-05-30T05:20:21.497Z,97.20
2019-05-30T05:22:50.933Z,97.10
2019-05-30T05:25:31.678Z,97.00
2019-05-30T05:28:01.360Z,96.80
2019-05-30T05:30:30.785Z,97.20
2019-05-30T05:33:00.111Z,97.20
2019-05-30T05:35:29.447Z,97.10
2019-05-30T05:37:58.706Z,96.90
2019-05-30T05:40:28.513Z,97.00
2019-05-30T05:42:58.526Z,96.80
2019-05-30T05:45:28.758Z,96.60
2019-05-30T05:47:58.494Z,96.60
2019-05-30T05:50:28.787Z,96.40
2019-05-30T05:53:01.354Z,96.60
2019-05-30T05:55:31.050Z,96.60
2019-05-30T05:58:04.165Z,96.70
2019-05-30T06:00:31.615Z,96.70
2019-05-30T06:03:00.872Z,96.20
2019-05-30T06:05:30.403Z,96.10
2019-05-30T06:07:59.630Z,95.70
2019-05-30T06:10:29.355Z,95.70
2019-05-30T06:12:58.455Z,95.70
2019-05-30T06:15:27.760Z,95.50
2019-05-30T06:17:57.260Z,94.80
2019-05-30T06:20:27.415Z,94.90
2019-05-30T06:22:55.913Z,94.90
2019-05-30T06:25:26.668Z,94.50
2019-05-30T06:27:53.915Z,94.30
2019-05-30T06:30:22.442Z,94.00
2019-05-30T06:32:50.487Z,93.10
2019-05-30T06:35:18.858Z,92.70
2019-05-30T06:37:47.151Z,92.40
2019-05-30T06:40:16.383Z,92.40
2019-05-30T06:42:45.031Z,92.10
2019-05-30T06:45:13.618Z,91.40
2019-05-30T06:47:41.982Z,92.00
2019-05-30T06:50:10.184Z,92.10
2019-05-30T06:52:38.503Z,91.70
2019-05-30T06:55:07.049Z,90.60
2019-05-30T06:57:35.154Z,89.80
2019-05-30T07:00:03.409Z,87.20
2019-05-30T07:02:32.553Z,88.60
2019-05-30T07:05:02.157Z,88.40
2019-05-30T07:07:31.410Z,86.00
2019-05-30T07:09:59.623Z,84.30
2019-05-30T07:12:28.976Z,85.30
2019-05-30T07:14:58.093Z,84.30
2019-05-30T07:17:27.525Z,83.30
2019-05-30T07:19:59.549Z,81.80
2019-05-30T07:22:29.737Z,80.40
2019-05-30T07:24:59.114Z,80.10
2019-05-30T07:27:28.508Z,79.60
2019-05-30T07:29:58.219Z,78.40
2019-05-30T07:32:27.976Z,77.30
2019-05-30T07:35:06.699Z,75.90
2019-05-30T07:37:28.136Z,76.20
2019-05-30T07:39:56.362Z,75.30
2019-05-30T07:42:24.810Z,75.20
2019-05-30T07:44:53.114Z,74.90
2019-05-30T07:47:21.266Z,74.50
2019-05-30T07:49:49.912Z,74.50
2019-05-30T07:52:18.548Z,74.10
2019-05-30T07:54:46.904Z,72.40
2019-05-30T07:57:14.984Z,71.00
2019-05-30T07:59:46.068Z,71.20
2019-05-30T08:02:14.157Z,70.00
2019-05-30T08:04:42.836Z,70.10
2019-05-30T08:07:11.604Z,69.50
2019-05-30T08:09:42.898Z,68.10
2019-05-30T08:12:11.295Z,69.50
2019-05-30T08:14:39.415Z,70.30
2019-05-30T08:17:07.775Z,69.30
2019-05-30T08:19:36.211Z,70.30
2019-05-30T08:22:04.822Z,70.20
2019-05-30T08:24:34.394Z,71.10
2019-05-30T08:27:04.585Z,71.80
2019-05-30T08:29:34.876Z,72.00
2019-05-30T08:32:04.031Z,70.40
2019-05-30T08:34:34.588Z,66.80
2019-05-30T08:37:04.039Z,62.80
2019-05-30T08:39:35.155Z,59.40
2019-05-30T08:42:04.733Z,53.80
2019-05-30T08:44:33.911Z,50.10
2019-05-30T08:47:03.277Z,47.30
2019-05-30T08:49:33.994Z,47.30
2019-05-30T08:52:03.344Z,47.90
2019-05-30T08:54:32.708Z,44.70
2019-05-30T08:57:02.032Z,44.10
2019-05-30T08:59:32.353Z,44.00
2019-05-30T09:02:01.849Z,44.20
2019-05-30T09:04:31.335Z,42.30
2019-05-30T09:07:01.204Z,41.30
2019-05-30T09:09:30.733Z,39.60
2019-05-30T09:12:00.007Z,39.20
2019-05-30T09:14:29.660Z,40.70
2019-05-30T09:16:59.255Z,42.60
2019-05-30T09:19:29.452Z,44.40
2019-05-30T09:21:58.592Z,45.70
2019-05-30T09:24:28.585Z,48.00
2019-05-30T09:26:58.114Z,50.30
2019-05-30T09:29:26.275Z,52.10
2019-05-30T09:31:54.848Z,51.70
2019-05-30T09:34:23.338Z,51.90
2019-05-30T09:36:51.516Z,52.70
2019-05-30T09:39:20.910Z,52.10
2019-05-30T09:41:51.406Z,53.50
2019-05-30T09:44:42.285Z,51.70
2019-05-30T09:47:12.598Z,49.50
2019-05-30T09:49:43.113Z,49.50
2019-05-30T09:52:12.989Z,52.50
2019-05-30T09:54:44.290Z,53.70
2019-05-30T09:57:13.592Z,54.90
2019-05-30T09:59:55.757Z,55.00
2019-05-30T10:06:39.119Z,54.70
2019-05-30T10:09:11.230Z,54.90
2019-05-30T10:11:49.353Z,56.60
2019-05-30T10:14:29.947Z,56.90
2019-05-30T10:16:59.179Z,55.10
2019-05-30T10:19:45.526Z,52.50
2019-05-30T10:22:06.792Z,52.90
2019-05-30T10:24:36.171Z,47.90
2019-05-30T10:27:05.776Z,42.40
2019-05-30T10:29:35.508Z,41.30
2019-05-30T10:32:05.046Z,38.50
2019-05-30T10:34:34.456Z,39.20
2019-05-30T10:37:05.339Z,41.60
2019-05-30T10:39:39.572Z,44.70
2019-05-30T10:42:15.488Z,47.10
2019-05-30T10:45:18.538Z,49.20
2019-05-30T10:47:51.398Z,50.10
2019-05-30T10:50:26.965Z,51.20
2019-05-30T10:52:59.952Z,52.70
2019-05-30T10:55:31.846Z,53.40
2019-05-30T10:58:01.468Z,53.20
2019-05-30T11:00:47.573Z,53.10
2019-05-30T11:03:20.542Z,49.80
2019-05-30T11:06:18.352Z,48.50
2019-05-30T11:08:50.641Z,48.90
2019-05-30T11:11:20.193Z,49.50
2019-05-30T11:13:53.279Z,49.50
2019-05-30T11:16:21.966Z,46.50
2019-05-30T11:18:51.398Z,45.30
2019-05-30T11:21:20.803Z,45.70
2019-05-30T11:23:51.403Z,46.40
2019-05-30T11:26:42.542Z,47.70
2019-05-30T11:29:19.559Z,46.10
2019-05-30T11:32:11.640Z,44.70
2019-05-30T11:34:46.193Z,46.00
2019-05-30T11:37:29.929Z,45.90
2019-05-30T11:40:24.020Z,44.40
2019-05-30T11:42:59.870Z,43.50
2019-05-30T11:45:41.200Z,44.30
2019-05-30T11:48:09.682Z,43.60
2019-05-30T11:50:39.170Z,43.00
2019-05-30T11:53:17.934Z,45.20
2019-05-30T11:56:06.855Z,43.80
2019-05-30T11:58:36.209Z,44.20
2019-05-30T12:01:05.187Z,42.50
2019-05-30T12:03:36.658Z,43.40
2019-05-30T12:06:25.912Z,47.30
2019-05-30T12:08:55.299Z,48.80
2019-05-30T12:11:24.930Z,46.40
2019-05-30T12:13:59.898Z,44.70
2019-05-30T12:16:31.866Z,45.20
2019-05-30T12:19:27.028Z,47.10
2019-05-30T12:21:56.300Z,46.60
2019-05-30T12:24:26.116Z,46.30
2019-05-30T12:26:56.072Z,47.50
2019-05-30T12:29:25.595Z,47.20
2019-05-30T12:31:57.531Z,47.10
2019-05-30T12:34:28.418Z,45.70
2019-05-30T12:36:58.449Z,45.90
2019-05-30T12:39:37.450Z,45.20
2019-05-30T12:42:07.805Z,44.40
2019-05-30T12:44:37.300Z,45.10
2019-05-30T12:47:06.432Z,45.70
2019-05-30T12:49:36.823Z,46.70
2019-05-30T12:52:06.248Z,46.70
2019-05-30T12:54:36.026Z,47.50
2019-05-30T12:57:19.942Z,46.30
2019-05-30T13:00:39.467Z,47.80
2019-05-30T13:02:47.889Z,47.00
2019-05-30T13:05:17.968Z,48.10
2019-05-30T13:07:51.267Z,48.00
2019-05-30T13:10:22.214Z,48.40
2019-05-30T13:12:51.626Z,48.00
2019-05-30T13:15:23.673Z,47.20
2019-05-30T13:17:55.521Z,46.60
2019-05-30T13:20:25.511Z,46.90
2019-05-30T13:22:54.735Z,47.70
2019-05-30T13:25:31.521Z,47.40
2019-05-30T13:28:04.650Z,47.10
2019-05-30T13:30:31.733Z,46.90
2019-05-30T13:33:04.560Z,46.30
2019-05-30T13:35:34.284Z,46.40
2019-05-30T13:38:07.281Z,45.50
2019-05-30T13:41:22.632Z,45.50
2019-05-30T13:43:51.858Z,45.80
2019-05-30T13:46:23.418Z,43.70
2019-05-30T13:49:06.853Z,44.30
2019-05-30T13:51:41.964Z,44.80
2019-05-30T13:54:11.513Z,44.40
2019-05-30T13:57:13.746Z,42.90
2019-05-30T14:00:24.713Z,43.60
2019-05-30T14:02:46.555Z,44.80
2019-05-30T14:05:16.573Z,45.10
2019-05-30T14:07:45.681Z,45.60
2019-05-30T14:10:20.112Z,45.70
2019-05-30T14:12:49.461Z,46.80
2019-05-30T14:15:23.426Z,45.50
2019-05-30T14:18:04.935Z,45.90
2019-05-30T14:20:34.560Z,46.80
2019-05-30T14:23:05.462Z,46.70
2019-05-30T14:25:37.149Z,46.80
2019-05-30T14:28:07.811Z,45.90
2019-05-30T14:30:38.008Z,44.30
2019-05-30T14:33:08.104Z,45.10
2019-05-30T14:35:37.668Z,46.10
2019-05-30T14:38:06.928Z,44.80
2019-05-30T14:40:36.089Z,44.90
2019-05-30T14:43:05.774Z,44.70
2019-05-30T14:45:34.875Z,44.80
2019-05-30T14:48:04.556Z,45.30
2019-05-30T14:50:33.841Z,46.30
2019-05-30T14:53:06.814Z,45.60
2019-05-30T14:55:35.974Z,45.20
2019-05-30T14:58:05.500Z,43.80
2019-05-30T15:00:35.678Z,44.00
2019-05-30T15:03:08.674Z,43.40
2019-05-30T15:05:36.676Z,43.50
2019-05-30T15:08:06.492Z,43.70
2019-05-30T15:10:35.853Z,43.50
2019-05-30T15:13:05.996Z,44.00
2019-05-30T15:15:35.399Z,43.50
2019-05-30T15:18:05.144Z,48.60
2019-05-30T15:20:34.871Z,44.30
2019-05-30T15:23:05.451Z,44.60
2019-05-30T15:25:35.213Z,44.50
2019-05-30T15:28:05.940Z,44.20
2019-05-30T15:30:35.253Z,44.60
2019-05-30T15:33:04.401Z,43.90
2019-05-30T15:35:34.471Z,43.40
2019-05-30T15:38:03.955Z,44.40
2019-05-30T15:40:33.495Z,43.50
2019-05-30T15:43:02.702Z,43.60
2019-05-30T15:45:32.662Z,44.40
2019-05-30T15:48:02.783Z,43.30
2019-05-30T15:50:34.893Z,43.10
2019-05-30T15:53:04.303Z,44.10
2019-05-30T15:55:33.909Z,44.50
2019-05-30T15:58:05.921Z,45.10
2019-05-30T16:00:37.036Z,44.60
2019-05-30T16:03:05.966Z,43.90
2019-05-30T16:05:35.079Z,44.70
2019-05-30T16:08:04.886Z,45.70
2019-05-30T16:10:36.861Z,44.10
2019-05-30T16:13:06.329Z,44.30
2019-05-30T16:15:35.967Z,44.40
2019-05-30T16:18:05.784Z,44.70
2019-05-30T16:20:35.398Z,44.90
2019-05-30T16:23:05.416Z,44.90
2019-05-30T16:25:34.481Z,45.50
2019-05-30T16:28:06.863Z,46.00
2019-05-30T16:30:36.354Z,45.40
2019-05-30T16:33:05.435Z,44.10
2019-05-30T16:35:34.768Z,44.70
2019-05-30T16:38:04.170Z,44.40
2019-05-30T16:40:33.651Z,44.40
2019-05-30T16:43:02.750Z,43.80
2019-05-30T16:45:32.109Z,43.90
2019-05-30T16:48:01.346Z,43.10
2019-05-30T16:50:30.442Z,42.60
2019-05-30T16:52:59.751Z,41.50
2019-05-30T16:55:29.155Z,42.20
2019-05-30T16:57:59.476Z,42.20
2019-05-30T17:00:31.332Z,42.40
2019-05-30T17:03:01.271Z,42.60
2019-05-30T17:05:32.334Z,42.80
2019-05-30T17:08:01.945Z,42.80
2019-05-30T17:10:33.219Z,41.80
2019-05-30T17:13:02.136Z,42.80
2019-05-30T17:15:31.229Z,43.30
2019-05-30T17:18:01.449Z,43.90
2019-05-30T17:20:30.762Z,44.00
2019-05-30T17:23:00.552Z,44.00
2019-05-30T17:25:29.958Z,43.80
2019-05-30T17:27:59.080Z,43.70
2019-05-30T17:30:28.124Z,43.70
2019-05-30T17:32:58.270Z,44.10
2019-05-30T17:35:28.548Z,44.40
2019-05-30T17:37:58.181Z,44.40
2019-05-30T17:40:41.222Z,44.10
2019-05-30T17:43:00.495Z,44.40
2019-05-30T17:45:29.942Z,43.60
2019-05-30T17:48:15.269Z,44.00
2019-05-30T17:50:30.135Z,44.30
2019-05-30T17:52:59.153Z,44.20
2019-05-30T17:55:28.479Z,44.70
2019-05-30T17:57:59.849Z,44.90
2019-05-30T18:00:30.557Z,44.70
2019-05-30T18:02:59.878Z,44.40
2019-05-30T18:05:30.853Z,44.90
2019-05-30T18:08:00.793Z,44.80
2019-05-30T18:10:31.087Z,45.20
2019-05-30T18:13:01.074Z,45.40
2019-05-30T18:15:31.164Z,45.20
2019-05-30T18:18:01.367Z,45.10
2019-05-30T18:20:31.646Z,45.70
2019-05-30T18:23:01.468Z,45.60
2019-05-30T18:25:31.824Z,45.70
2019-05-30T18:28:01.651Z,46.00
2019-05-30T18:30:44.286Z,46.60
2019-05-30T18:33:13.739Z,47.30
2019-05-30T18:35:42.989Z,47.50
2019-05-30T18:38:12.781Z,47.60
2019-05-30T18:40:42.238Z,47.70
2019-05-30T18:43:11.311Z,47.90
2019-05-30T18:45:41.603Z,48.30
2019-05-30T18:48:11.407Z,48.20
2019-05-30T18:50:40.540Z,48.30
2019-05-30T18:53:10.812Z,48.60
2019-05-30T18:55:40.074Z,48.90
2019-05-30T18:58:09.252Z,49.20
2019-05-30T19:00:38.306Z,49.40
2019-05-30T19:03:07.785Z,49.40
2019-05-30T19:05:37.375Z,49.60
2019-05-30T19:08:06.624Z,49.70
2019-05-30T19:10:36.571Z,50.00
2019-05-30T19:13:06.707Z,50.10
2019-05-30T19:15:36.115Z,50.60
2019-05-30T19:18:09.125Z,50.60
2019-05-30T19:20:38.019Z,51.40
2019-05-30T19:23:07.430Z,51.70
2019-05-30T19:25:37.793Z,52.30
2019-05-30T19:28:20.521Z,52.20
2019-05-30T19:30:50.371Z,52.50
2019-05-30T19:33:20.937Z,53.00
2019-05-30T19:35:50.968Z,53.20
2019-05-30T19:38:21.136Z,53.80
2019-05-30T19:40:53.534Z,54.20
2019-05-30T19:43:27.467Z,54.60
2019-05-30T19:45:57.025Z,55.10
2019-05-30T19:48:30.274Z,55.50
2019-05-30T19:50:59.975Z,56.00
2019-05-30T19:53:30.843Z,56.30
2019-05-30T19:56:03.266Z,56.60
2019-05-30T19:58:33.431Z,57.00
2019-05-30T20:01:02.640Z,57.30
2019-05-30T20:03:40.224Z,57.50
2019-05-30T20:06:03.952Z,57.10
2019-05-30T20:08:46.942Z,57.70
2019-05-30T20:11:05.122Z,58.20
2019-05-30T20:13:35.040Z,58.40
2019-05-30T20:16:04.678Z,58.60
2019-05-30T20:18:34.065Z,58.80
2019-05-30T20:21:33.751Z,59.60
2019-05-30T20:24:56.184Z,59.40
2019-05-30T20:27:25.737Z,59.20
2019-05-30T20:30:02.611Z,59.80
2019-05-30T20:32:31.552Z,60.10
2019-05-30T20:35:00.842Z,59.60
2019-05-30T20:37:32.121Z,60.00
2019-05-30T20:40:02.299Z,59.70
2019-05-30T20:42:34.663Z,58.50
2019-05-30T20:45:05.996Z,58.20
2019-05-30T20:47:37.598Z,58.00
2019-05-30T20:50:06.942Z,58.30
2019-05-30T20:52:39.967Z,58.60
2019-05-30T20:55:08.894Z,60.00
2019-05-30T20:57:38.797Z,59.00
2019-05-30T21:00:09.325Z,59.10
2019-05-30T21:03:00.628Z,59.60
2019-05-30T21:05:29.698Z,60.00
2019-05-30T21:08:00.188Z,60.30
2019-05-30T21:10:31.397Z,60.50
2019-05-30T21:13:01.499Z,60.60
2019-05-30T21:15:32.913Z,61.20
2019-05-30T21:18:03.635Z,61.50
2019-05-30T21:20:33.726Z,62.00
2019-05-30T21:23:04.505Z,62.40
2019-05-30T21:25:35.849Z,62.90
2019-05-30T21:28:06.271Z,63.40
2019-05-30T21:30:35.248Z,63.20
2019-05-30T21:33:05.143Z,63.30
2019-05-30T21:35:34.451Z,63.80
2019-05-30T21:38:03.828Z,63.80
2019-05-30T21:40:32.802Z,64.40
2019-05-30T21:43:06.880Z,64.20
2019-05-30T21:45:33.971Z,64.60
2019-05-30T21:48:03.275Z,64.40
2019-05-30T21:50:32.605Z,65.10
2019-05-30T21:53:01.641Z,65.20
2019-05-30T21:55:30.731Z,65.60
2019-05-30T21:58:00.231Z,66.00
2019-05-30T22:01:09.528Z,66.20
2019-05-30T22:03:38.675Z,66.20
2019-05-30T22:06:07.685Z,66.30
2019-05-30T22:08:37.200Z,66.20
2019-05-30T22:11:06.268Z,66.50
2019-05-30T22:13:36.863Z,66.80
2019-05-30T22:16:04.975Z,66.90
2019-05-30T22:18:33.296Z,67.00
2019-05-30T22:21:11.799Z,67.30
2019-05-30T22:23:42.432Z,67.50
2019-05-30T22:26:15.374Z,67.90
2019-05-30T22:28:46.342Z,68.40
2019-05-30T22:31:15.662Z,68.90
2019-05-30T22:33:45.069Z,69.00
2019-05-30T22:36:17.530Z,69.60
2019-05-30T22:38:48.823Z,70.60
2019-05-30T22:41:18.004Z,69.30
2019-05-30T22:43:50.538Z,69.00
2019-05-30T22:46:19.886Z,69.10
2019-05-30T22:48:48.922Z,69.30
2019-05-30T22:51:21.000Z,69.30
2019-05-30T22:53:51.625Z,69.10
2019-05-30T22:56:20.678Z,68.80
2019-05-30T22:58:53.687Z,69.10
2019-05-30T23:01:23.175Z,68.10
2019-05-30T23:03:53.964Z,67.90
2019-05-30T23:06:24.371Z,68.10
2019-05-30T23:08:54.907Z,69.00
2019-05-30T23:11:24.550Z,68.80
2019-05-30T23:13:54.456Z,68.70
2019-05-30T23:16:24.351Z,69.00
2019-05-30T23:18:54.612Z,69.70
2019-05-30T23:21:24.596Z,69.90
2019-05-30T23:23:55.275Z,70.00
2019-05-30T23:26:24.601Z,70.00
2019-05-30T23:28:54.181Z,70.10
2019-05-30T23:31:23.243Z,70.40
2019-05-30T23:33:52.614Z,70.40
2019-05-30T23:36:21.625Z,70.70
2019-05-30T23:38:50.821Z,71.10
2019-05-30T23:41:20.335Z,71.20
2019-05-30T23:43:58.032Z,71.80
2019-05-30T23:46:22.834Z,71.50
2019-05-30T23:48:52.158Z,71.50
2019-05-30T23:51:21.297Z,71.90
2019-05-30T23:53:52.018Z,71.90
2019-05-30T23:56:21.989Z,72.20
2019-05-30T23:58:52.597Z,72.70
